createdAt,value
2023-04-11T05:33:23.559Z,3.42
2023-04-11T05:36:04.488Z,3.90
2023-04-11T05:38:39.308Z,3.80
2023-04-11T05:41:19.580Z,3.78
2023-04-11T05:43:59.431Z,4.03
2023-04-11T05:46:33.946Z,4.57
2023-04-11T05:49:14.440Z,4.25
2023-04-11T05:51:48.726Z,3.23
2023-04-11T05:54:38.409Z,4.60
2023-04-11T05:57:11.864Z,4.32
2023-04-11T05:59:52.735Z,4.60
2023-04-11T06:02:32.846Z,4.32
2023-04-11T06:05:08.371Z,3.70
2023-04-11T06:07:48.435Z,4.25
2023-04-11T06:10:30.608Z,3.97
2023-04-11T06:13:10.463Z,4.13
2023-04-11T06:15:43.926Z,3.97
2023-04-11T06:18:10.723Z,4.22
2023-04-11T06:20:38.712Z,4.13
2023-04-11T06:23:11.440Z,3.15
2023-04-11T06:25:44.882Z,3.38
2023-04-11T06:28:11.494Z,4.13
2023-04-11T06:30:38.093Z,3.90
2023-04-11T06:33:04.767Z,4.05
2023-04-11T06:35:31.687Z,4.00
2023-04-11T06:38:00.132Z,3.40
2023-04-11T06:40:27.161Z,3.05
2023-04-11T06:42:54.635Z,3.70
2023-04-11T06:45:21.798Z,3.25
2023-04-11T06:47:50.147Z,2.88
2023-04-11T06:50:17.283Z,3.35
2023-04-11T06:52:44.178Z,3.28
2023-04-11T06:55:12.703Z,2.88
2023-04-11T06:57:40.368Z,4.07
2023-04-11T07:00:08.803Z,3.47
2023-04-11T07:02:36.234Z,3.70
2023-04-11T07:05:03.536Z,2.50
2023-04-11T07:07:30.114Z,2.90
2023-04-11T07:09:57.559Z,2.72
2023-04-11T07:12:25.811Z,3.13
2023-04-11T07:14:52.525Z,3.55
2023-04-11T07:17:19.228Z,2.28
2023-04-11T07:19:45.893Z,2.42
2023-04-11T07:22:12.494Z,2.47
2023-04-11T07:24:39.254Z,3.00
2023-04-11T07:27:05.888Z,2.20
2023-04-11T07:29:33.892Z,2.80
2023-04-11T07:32:00.627Z,2.40
2023-04-11T07:34:27.412Z,2.60
2023-04-11T07:36:55.391Z,3.20
2023-04-11T07:39:22.061Z,2.50
2023-04-11T07:41:48.675Z,2.47
2023-04-11T07:44:15.599Z,2.58
2023-04-11T07:46:43.577Z,2.10
2023-04-11T07:49:10.255Z,2.20
2023-04-11T07:51:36.874Z,1.98
2023-04-11T07:54:03.844Z,2.30
2023-04-11T07:56:30.535Z,2.33
2023-04-11T07:58:57.174Z,2.15
2023-04-11T08:01:25.760Z,2.53
2023-04-11T08:03:55.802Z,1.95
2023-04-11T08:06:23.018Z,1.85
2023-04-11T08:08:51.086Z,2.67
2023-04-11T08:11:17.723Z,2.28
2023-04-11T08:13:44.338Z,2.40
2023-04-11T08:16:12.256Z,2.08
2023-04-11T08:18:38.989Z,2.47
2023-04-11T08:21:07.936Z,2.25
2023-04-11T08:23:34.729Z,3.00
2023-04-11T08:26:01.306Z,2.10
2023-04-11T08:28:28.261Z,2.00
2023-04-11T08:30:54.926Z,2.47
2023-04-11T08:33:23.270Z,2.47
2023-04-11T08:35:49.892Z,3.05
2023-04-11T08:38:17.779Z,2.47
2023-04-11T08:40:44.411Z,3.05
2023-04-11T08:43:11.175Z,3.05
2023-04-11T08:45:38.218Z,2.65
2023-04-11T08:48:05.679Z,2.30
2023-04-11T08:50:32.484Z,2.45
2023-04-11T08:53:01.350Z,2.70
2023-04-11T08:55:29.548Z,2.72
2023-04-11T08:57:56.288Z,2.60
2023-04-11T09:00:24.182Z,2.60
2023-04-11T09:02:58.442Z,2.08
2023-04-11T09:05:26.556Z,2.40
2023-04-11T09:07:53.472Z,2.25
2023-04-11T09:10:21.453Z,2.42
2023-04-11T09:12:49.440Z,2.53
2023-04-11T09:15:20.788Z,2.80
2023-04-11T09:17:47.658Z,2.40
2023-04-11T09:20:19.908Z,2.05
2023-04-11T09:25:15.436Z,2.00
2023-04-11T09:27:42.185Z,2.30
2023-04-11T09:30:21.645Z,2.45
2023-04-11T09:32:49.063Z,2.20
2023-04-11T09:35:17.561Z,2.13
2023-04-11T09:37:46.132Z,1.85
2023-04-11T09:40:13.113Z,2.13
2023-04-11T09:42:39.818Z,1.75
2023-04-11T09:45:16.373Z,1.80
2023-04-11T09:47:44.952Z,1.63
2023-04-11T09:50:11.975Z,2.22
2023-04-11T09:52:40.267Z,2.45
2023-04-11T09:55:08.084Z,1.70
2023-04-11T09:57:36.839Z,1.55
2023-04-11T10:00:04.332Z,1.90
2023-04-11T10:02:32.430Z,2.00
2023-04-11T10:05:00.540Z,1.92
2023-04-11T10:07:27.696Z,2.08
2023-04-11T10:09:54.413Z,2.83
2023-04-11T10:12:30.934Z,2.60
2023-04-11T10:14:57.655Z,2.15
2023-04-11T10:17:24.634Z,2.40
2023-04-11T10:19:54.716Z,2.00
2023-04-11T10:23:00.618Z,1.60
2023-04-11T10:25:28.159Z,1.98
2023-04-11T10:27:56.869Z,1.50
2023-04-11T10:30:57.149Z,2.25
2023-04-11T10:33:23.732Z,1.67
2023-04-11T10:35:57.288Z,1.98
2023-04-11T10:38:47.530Z,1.80
2023-04-11T10:41:15.473Z,1.58
2023-04-11T10:43:42.178Z,2.15
2023-04-11T10:46:19.745Z,1.77
2023-04-11T10:49:00.618Z,1.67
2023-04-11T10:51:28.362Z,1.60
2023-04-11T10:53:56.967Z,1.60
2023-04-11T10:56:54.157Z,1.67
2023-04-11T10:59:58.463Z,1.95
2023-04-11T11:02:41.361Z,1.98
2023-04-11T11:05:24.282Z,1.90
2023-04-11T11:07:52.804Z,1.65
2023-04-11T11:10:40.175Z,1.30
2023-04-11T11:13:07.183Z,1.73
2023-04-11T11:15:35.040Z,1.70
2023-04-11T11:18:01.692Z,1.30
2023-04-11T11:20:28.383Z,1.40
2023-04-11T11:22:59.284Z,1.63
2023-04-11T11:25:26.247Z,1.20
2023-04-11T11:28:05.494Z,1.40
2023-04-11T11:30:32.837Z,1.02
2023-04-11T11:32:59.650Z,1.20
2023-04-11T11:35:26.425Z,1.95
2023-04-11T11:37:53.729Z,1.58
2023-04-11T11:40:21.628Z,1.20
2023-04-11T11:42:49.893Z,1.17
2023-04-11T11:45:19.613Z,1.00
2023-04-11T11:47:47.817Z,0.95
2023-04-11T11:50:25.018Z,0.82
2023-04-11T11:52:51.682Z,1.00
2023-04-11T11:55:32.085Z,1.63
2023-04-11T11:58:00.681Z,1.05
2023-04-11T12:00:29.960Z,1.00
2023-04-11T12:02:57.868Z,1.20
2023-04-11T12:05:25.345Z,1.48
2023-04-11T12:07:54.506Z,0.90
2023-04-11T12:10:21.161Z,0.80
2023-04-11T12:12:53.334Z,1.10
2023-04-11T12:15:22.382Z,1.48
2023-04-11T12:17:52.018Z,1.27
2023-04-11T12:20:22.304Z,0.88
2023-04-11T12:22:48.875Z,1.00
2023-04-11T12:25:15.849Z,1.00
2023-04-11T12:27:44.945Z,1.30
2023-04-11T12:30:13.889Z,1.47
2023-04-11T12:32:41.192Z,1.83
2023-04-11T12:35:10.886Z,1.05
2023-04-11T12:37:38.426Z,1.40
2023-04-11T12:40:06.479Z,1.20
2023-04-11T12:42:36.506Z,1.40
2023-04-11T12:45:07.600Z,1.45
2023-04-11T12:47:34.336Z,1.27
2023-04-11T12:50:01.065Z,1.10
2023-04-11T12:52:29.690Z,1.45
2023-04-11T12:54:56.599Z,1.15
2023-04-11T12:57:23.194Z,1.88
2023-04-11T12:59:49.854Z,1.13
2023-04-11T13:02:16.516Z,1.42
2023-04-11T13:04:43.171Z,1.17
2023-04-11T13:07:09.877Z,1.27
2023-04-11T13:09:38.068Z,1.30
2023-04-11T13:12:05.175Z,0.80
2023-04-11T13:14:31.759Z,1.38
2023-04-11T13:16:58.305Z,1.20
2023-04-11T13:19:25.039Z,1.15
2023-04-11T13:21:51.633Z,0.95
2023-04-11T13:24:18.164Z,1.10
2023-04-11T13:26:46.099Z,1.00
2023-04-11T13:29:12.738Z,1.35
2023-04-11T13:31:39.460Z,1.35
2023-04-11T13:34:06.093Z,1.13
2023-04-11T13:36:32.897Z,1.08
2023-04-11T13:38:59.652Z,1.40
2023-04-11T13:41:26.232Z,1.10
2023-04-11T13:43:54.156Z,1.55
2023-04-11T13:46:21.107Z,1.15
2023-04-11T13:48:47.795Z,1.17
2023-04-11T13:51:14.334Z,1.02
2023-04-11T13:53:41.002Z,1.17
2023-04-11T13:56:08.193Z,1.00
2023-04-11T13:58:34.737Z,0.77
2023-04-11T14:01:02.712Z,1.10
2023-04-11T14:03:29.434Z,1.40
2023-04-11T14:05:56.103Z,1.27
2023-04-11T14:08:22.687Z,1.50
2023-04-11T14:10:49.243Z,1.35
2023-04-11T14:13:15.862Z,1.52
2023-04-11T14:15:42.462Z,0.80
2023-04-11T14:18:10.464Z,1.48
2023-04-11T14:20:37.871Z,1.63
2023-04-11T14:23:04.764Z,1.45
2023-04-11T14:25:31.389Z,1.02
2023-04-11T14:27:58.018Z,1.30
2023-04-11T14:30:24.666Z,1.15
2023-04-11T14:32:51.235Z,1.15
2023-04-11T14:35:19.187Z,1.50
2023-04-11T14:37:45.751Z,1.08
2023-04-11T14:40:12.988Z,1.15
2023-04-11T14:42:40.007Z,1.45
2023-04-11T14:45:07.793Z,1.48
2023-04-11T14:47:35.047Z,1.10
2023-04-11T14:50:01.720Z,1.02
2023-04-11T14:52:29.966Z,1.33
2023-04-11T14:54:56.549Z,1.80
2023-04-11T14:57:23.147Z,1.20
2023-04-11T14:59:49.694Z,1.30
2023-04-11T15:02:16.524Z,1.17
2023-04-11T15:04:43.196Z,1.20
2023-04-11T15:07:09.742Z,1.38
2023-04-11T15:09:37.746Z,1.25
2023-04-11T15:12:04.879Z,1.35
2023-04-11T15:14:31.486Z,1.17
2023-04-11T15:16:58.118Z,1.33
2023-04-11T15:19:24.650Z,1.02
2023-04-11T15:21:51.237Z,1.10
2023-04-11T15:24:17.802Z,1.02
2023-04-11T15:26:45.692Z,1.20
2023-04-11T15:29:14.707Z,1.30
2023-04-11T15:31:41.301Z,1.52
2023-04-11T15:34:07.915Z,1.40
2023-04-11T15:36:36.426Z,1.50
2023-04-11T15:39:03.011Z,1.17
2023-04-11T15:41:29.599Z,1.30
2023-04-11T15:43:57.879Z,1.40
2023-04-11T15:46:24.823Z,1.33
2023-04-11T15:48:51.521Z,1.40
2023-04-11T15:51:18.060Z,1.40
2023-04-11T15:53:44.604Z,1.63
2023-04-11T15:56:11.266Z,1.48
2023-04-11T15:58:37.827Z,2.78
2023-04-11T16:01:06.534Z,3.28
2023-04-11T16:03:33.312Z,3.10
2023-04-11T16:06:00.322Z,2.20
2023-04-11T16:08:27.494Z,2.50
2023-04-11T16:10:54.540Z,2.63
2023-04-11T16:13:21.300Z,2.90
2023-04-11T16:15:47.899Z,2.08
2023-04-11T16:18:16.121Z,1.58
2023-04-11T16:20:42.656Z,2.10
2023-04-11T16:23:10.315Z,2.25
2023-04-11T16:25:37.494Z,1.45
2023-04-11T16:28:04.119Z,1.80
2023-04-11T16:30:30.725Z,2.00
2023-04-11T16:32:57.349Z,1.27
2023-04-11T16:35:25.532Z,1.83
2023-04-11T16:37:52.370Z,1.90
2023-04-11T16:40:19.140Z,2.15
2023-04-11T16:42:45.718Z,1.90
2023-04-11T16:45:12.673Z,2.20
2023-04-11T16:47:39.399Z,1.45
2023-04-11T16:50:07.129Z,2.25
2023-04-11T16:52:35.070Z,2.10
2023-04-11T16:55:01.776Z,1.67
2023-04-11T16:57:28.447Z,1.63
2023-04-11T16:59:55.035Z,2.20
2023-04-11T17:02:21.701Z,1.77
2023-04-11T17:04:48.398Z,1.83
2023-04-11T17:07:15.029Z,1.83
2023-04-11T17:09:43.037Z,2.00
2023-04-11T17:12:09.636Z,1.52
2023-04-11T17:14:36.225Z,2.22
2023-04-11T17:17:03.041Z,1.80
2023-04-11T17:19:29.727Z,2.30
2023-04-11T17:21:56.316Z,2.35
2023-04-11T17:24:22.902Z,2.20
2023-04-11T17:26:50.814Z,1.80
2023-04-11T17:29:17.476Z,1.60
2023-04-11T17:31:45.881Z,2.05
2023-04-11T17:34:12.505Z,1.65
2023-04-11T17:36:39.148Z,2.10
2023-04-11T17:39:05.723Z,1.70
2023-04-11T17:41:32.269Z,2.53
2023-04-11T17:44:00.329Z,2.20
2023-04-11T17:46:26.922Z,3.22
2023-04-11T17:48:53.578Z,3.83
2023-04-11T17:51:20.173Z,4.15
2023-04-11T17:53:46.705Z,2.70
2023-04-11T17:56:13.234Z,2.22
2023-04-11T17:58:39.824Z,1.98
2023-04-11T18:01:09.696Z,3.35
2023-04-11T18:03:36.503Z,2.40
2023-04-11T18:06:03.256Z,2.40
2023-04-11T18:08:46.795Z,1.70
2023-04-11T18:11:16.157Z,1.60
2023-04-11T18:13:43.188Z,1.75
2023-04-11T18:16:11.393Z,1.70
2023-04-11T18:18:38.082Z,1.80
2023-04-11T18:21:07.341Z,2.05
2023-04-11T18:23:34.650Z,2.00
2023-04-11T18:26:01.304Z,1.60
2023-04-11T18:28:27.929Z,1.70
2023-04-11T18:30:54.589Z,2.05
2023-04-11T18:33:22.647Z,1.90
2023-04-11T18:35:49.362Z,1.75
2023-04-11T18:38:16.074Z,1.30
2023-04-11T18:40:42.672Z,1.55
2023-04-11T18:43:09.258Z,1.95
2023-04-11T18:45:35.935Z,1.10
2023-04-11T18:48:02.700Z,1.50
2023-04-11T18:50:30.835Z,1.20
2023-04-11T18:53:02.779Z,1.42
2023-04-11T18:55:31.947Z,1.42
2023-04-11T18:58:00.372Z,1.73
2023-04-11T19:00:27.635Z,1.70
2023-04-11T19:02:54.370Z,1.88
2023-04-11T19:05:21.474Z,1.45
2023-04-11T19:07:49.860Z,2.05
2023-04-11T19:10:16.693Z,1.88
2023-04-11T19:12:43.320Z,1.80
2023-04-11T19:15:10.977Z,1.30
2023-04-11T19:17:38.449Z,1.35
2023-04-11T19:20:06.440Z,1.52
2023-04-11T19:22:32.975Z,1.65
2023-04-11T19:25:00.969Z,1.52
2023-04-11T19:27:27.494Z,1.50
2023-04-11T19:29:54.158Z,1.98
2023-04-11T19:32:20.789Z,1.60
2023-04-11T19:34:47.363Z,1.55
2023-04-11T19:37:13.960Z,1.60
2023-04-11T19:39:40.517Z,1.27
2023-04-11T19:42:08.662Z,1.75
2023-04-11T19:44:35.278Z,1.55
2023-04-11T19:47:01.881Z,1.88
2023-04-11T19:49:28.578Z,2.08
2023-04-11T19:51:55.088Z,1.50
2023-04-11T19:54:21.625Z,1.58
2023-04-11T19:56:48.266Z,1.45
2023-04-11T19:59:16.217Z,1.38
2023-04-11T20:01:42.947Z,1.60
2023-04-11T20:04:09.771Z,1.33
2023-04-11T20:06:36.508Z,1.60
2023-04-11T20:09:03.150Z,1.58
2023-04-11T20:11:29.776Z,1.70
2023-04-11T20:13:56.529Z,1.33
2023-04-11T20:16:24.614Z,1.38
2023-04-11T20:18:51.362Z,1.45
2023-04-11T20:21:18.282Z,1.63
2023-04-11T20:23:45.147Z,1.80
2023-04-11T20:26:11.898Z,1.73
2023-04-11T20:28:38.687Z,1.25
2023-04-11T20:31:06.574Z,1.50
2023-04-11T20:33:34.530Z,1.58
2023-04-11T20:36:01.123Z,1.55
2023-04-11T20:38:27.715Z,1.63
2023-04-11T20:40:54.424Z,1.23
2023-04-11T20:43:21.005Z,1.67
2023-04-11T20:45:47.654Z,1.77
2023-04-11T20:48:14.216Z,1.73
2023-04-11T20:50:42.175Z,1.60
2023-04-11T20:53:08.764Z,1.40
2023-04-11T20:55:35.391Z,1.40
2023-04-11T20:58:01.999Z,1.67
2023-04-11T21:00:28.563Z,1.75
2023-04-11T21:02:55.273Z,1.05
2023-04-11T21:05:22.311Z,1.45
2023-04-11T21:07:50.308Z,1.80
2023-04-11T21:10:17.182Z,1.50
2023-04-11T21:12:43.824Z,1.67
2023-04-11T21:15:10.796Z,1.58
2023-04-11T21:17:37.564Z,1.88
2023-04-11T21:20:04.739Z,1.65
2023-04-11T21:22:31.332Z,2.03
2023-04-11T21:25:01.694Z,1.63
2023-04-11T21:27:28.321Z,1.50
2023-04-11T21:29:54.963Z,1.80
2023-04-11T21:32:21.561Z,1.50
2023-04-11T21:34:48.222Z,1.50
2023-04-11T21:37:14.736Z,1.60
2023-04-11T21:39:41.284Z,1.70
2023-04-11T21:42:09.174Z,1.80
2023-04-11T21:44:35.765Z,1.67
2023-04-11T21:47:02.551Z,1.75
2023-04-11T21:49:29.250Z,1.95
2023-04-11T21:51:55.883Z,1.70
2023-04-11T21:54:22.439Z,2.15
2023-04-11T21:56:48.963Z,1.77
2023-04-11T21:59:16.901Z,1.55
2023-04-11T22:01:43.542Z,1.63
2023-04-11T22:04:10.504Z,1.55
2023-04-11T22:06:37.379Z,1.45
2023-04-11T22:09:04.280Z,1.67
2023-04-11T22:11:30.911Z,1.73
2023-04-11T22:13:57.727Z,1.50
2023-04-11T22:16:26.295Z,1.50
2023-04-11T22:18:53.741Z,1.50
2023-04-11T22:21:20.287Z,1.45
2023-04-11T22:23:49.232Z,1.58
2023-04-11T22:26:15.906Z,1.65
2023-04-11T22:28:42.585Z,1.55
2023-04-11T22:31:09.217Z,1.75
2023-04-11T22:33:37.187Z,2.20
2023-04-11T22:36:04.437Z,2.03
2023-04-11T22:38:31.135Z,1.48
2023-04-11T22:40:57.754Z,1.55
2023-04-11T22:43:24.478Z,1.55
2023-04-11T22:45:51.111Z,1.50
2023-04-11T22:48:17.702Z,1.58
2023-04-11T22:50:45.650Z,1.33
2023-04-11T22:53:12.464Z,1.73
2023-04-11T22:55:39.042Z,1.67
2023-04-11T22:58:05.632Z,1.58
2023-04-11T23:00:32.343Z,1.80
2023-04-11T23:02:58.937Z,1.65
2023-04-11T23:05:25.546Z,1.60
2023-04-11T23:07:53.490Z,1.60
2023-04-11T23:10:20.129Z,1.92
2023-04-11T23:12:46.735Z,1.45
2023-04-11T23:15:13.405Z,1.80
2023-04-11T23:17:40.037Z,1.63
2023-04-11T23:20:08.005Z,1.73
2023-04-11T23:22:34.592Z,1.70
2023-04-11T23:25:02.488Z,1.80
2023-04-11T23:27:29.052Z,1.90
2023-04-11T23:29:55.649Z,1.40
2023-04-11T23:32:22.386Z,1.58
2023-04-11T23:34:49.024Z,1.85
2023-04-11T23:37:15.662Z,1.55
2023-04-11T23:39:42.297Z,1.50
2023-04-11T23:42:10.236Z,1.80
2023-04-11T23:44:36.956Z,1.55
2023-04-11T23:47:03.578Z,1.48
2023-04-11T23:49:30.207Z,1.60
2023-04-11T23:51:56.748Z,1.38
2023-04-11T23:54:23.446Z,1.70
2023-04-11T23:56:49.987Z,1.63
2023-04-11T23:59:17.941Z,1.80
